Time;durP1;ratioP1;P1;durP2;ratioP2;P2;SDS_P1;SDS_P2;PMS_P1;PMS_P2;Temp;Humidity;BMP_temperature;BMP_pressure;BME280_temperature;BME280_humidity;BME280_pressure;Samples;Min_cycle;Max_cycle;Signal;HPM_P1;HPM_P2
2022/10/15 00:00:28;;;;;;;13.07;11.03;;;;;;;;;;5054779;28;20414;-44
2022/10/15 00:02:54;;;;;;;17.27;12.40;;;;;;;;;;5054562;28;20427;-44
2022/10/15 00:05:20;;;;;;;16.10;11.40;;;;;;;;;;5054660;28;20424;-42
2022/10/15 00:07:47;;;;;;;17.20;12.53;;;;;;;;;;5054381;28;20779;-46
2022/10/15 00:10:13;;;;;;;16.33;12.80;;;;;;;;;;5054152;28;20417;-42
2022/10/15 00:12:40;;;;;;;16.90;12.43;;;;;;;;;;5054557;28;20863;-44
2022/10/15 00:15:06;;;;;;;15.07;12.40;;;;;;;;;;5054627;28;20409;-42
2022/10/15 00:17:35;;;;;;;16.90;13.40;;;;;;;;;;5054431;28;20388;-44
2022/10/15 00:20:01;;;;;;;17.17;13.67;;;;;;;;;;5053706;28;20971;-42
2022/10/15 00:22:27;;;;;;;16.53;12.80;;;;;;;;;;5054505;28;20411;-42
2022/10/15 00:24:53;;;;;;;15.33;10.70;;;;;;;;;;5054341;28;20383;-42
2022/10/15 00:27:19;;;;;;;14.17;12.03;;;;;;;;;;5054465;28;20409;-42
2022/10/15 00:29:45;;;;;;;17.63;12.90;;;;;;;;;;5053586;28;20408;-41
2022/10/15 00:32:11;;;;;;;16.50;13.10;;;;;;;;;;5054094;28;20486;-43
2022/10/15 00:34:37;;;;;;;23.83;12.30;;;;;;;;;;5054378;28;20512;-43
2022/10/15 00:37:03;;;;;;;15.30;12.17;;;;;;;;;;5054140;28;20413;-42
2022/10/15 00:39:29;;;;;;;15.57;12.23;;;;;;;;;;5053474;28;20605;-44
2022/10/15 00:41:55;;;;;;;17.27;14.30;;;;;;;;;;5054101;28;20621;-45
2022/10/15 00:44:21;;;;;;;17.30;14.00;;;;;;;;;;5054155;28;20503;-42
2022/10/15 00:47:08;;;;;;;18.40;13.87;;;;;;;;;;5053797;28;20399;-42
2022/10/15 00:49:40;;;;;;;16.90;12.90;;;;;;;;;;5053326;28;20429;-42
2022/10/15 00:52:07;;;;;;;18.77;13.33;;;;;;;;;;5053691;28;20409;-45
2022/10/15 00:54:44;;;;;;;20.63;13.20;;;;;;;;;;5053894;28;20413;-43
2022/10/15 00:57:10;;;;;;;17.60;12.60;;;;;;;;;;5053343;28;20419;-42
2022/10/15 00:59:38;;;;;;;25.07;16.60;;;;;;;;;;5052681;28;20463;-45
2022/10/15 01:02:05;;;;;;;19.07;14.13;;;;;;;;;;5052856;28;20404;-45
2022/10/15 01:04:31;;;;;;;21.23;14.20;;;;;;;;;;5052988;28;20977;-45
2022/10/15 01:06:57;;;;;;;18.07;14.33;;;;;;;;;;5053360;28;20428;-43
2022/10/15 01:09:23;;;;;;;17.30;13.20;;;;;;;;;;5052907;28;20717;-42
2022/10/15 01:11:50;;;;;;;19.27;12.33;;;;;;;;;;5053327;28;20373;-42
2022/10/15 01:14:25;;;;;;;18.00;14.53;;;;;;;;;;5053845;28;20558;-43
2022/10/15 01:17:10;;;;;;;18.23;13.50;;;;;;;;;;5053422;28;20389;-42
2022/10/15 01:19:54;;;;;;;17.30;14.10;;;;;;;;;;5052310;28;20490;-45
2022/10/15 01:22:31;;;;;;;18.57;13.73;;;;;;;;;;5053152;28;20391;-43
2022/10/15 01:24:57;;;;;;;20.37;14.67;;;;;;;;;;5053392;28;20415;-42
2022/10/15 01:27:27;;;;;;;24.57;14.20;;;;;;;;;;5032785;28;20463;-44
2022/10/15 01:30:11;;;;;;;17.80;13.23;;;;;;;;;;5042021;28;20485;-47
2022/10/15 01:32:43;;;;;;;15.33;12.50;;;;;;;;;;5051077;28;20454;-44
2022/10/15 01:35:16;;;;;;;20.30;13.60;;;;;;;;;;5051075;28;20492;-45
2022/10/15 01:37:54;;;;;;;18.57;13.10;;;;;;;;;;5050691;28;20408;-43
2022/10/15 01:40:30;;;;;;;17.37;13.17;;;;;;;;;;5050628;28;20414;-43
2022/10/15 01:42:57;;;;;;;20.50;13.93;;;;;;;;;;5050962;28;20398;-44
2022/10/15 01:45:33;;;;;;;17.17;13.17;;;;;;;;;;5052448;28;20415;-42
2022/10/15 01:48:01;;;;;;;18.07;13.73;;;;;;;;;;5052284;28;20941;-43
2022/10/15 01:50:30;;;;;;;18.60;13.20;;;;;;;;;;5052552;28;20392;-42
2022/10/15 01:52:56;;;;;;;18.20;13.40;;;;;;;;;;5052702;28;20407;-42
2022/10/15 01:55:23;;;;;;;16.77;13.13;;;;;;;;;;5052706;28;20449;-42
2022/10/15 01:57:51;;;;;;;19.43;13.10;;;;;;;;;;5052053;28;20408;-43
2022/10/15 02:00:17;;;;;;;17.83;13.20;;;;;;;;;;5052016;28;20495;-43
2022/10/15 02:02:43;;;;;;;18.10;12.97;;;;;;;;;;5052268;28;20417;-43
2022/10/15 02:05:12;;;;;;;19.93;13.10;;;;;;;;;;5052043;28;20403;-42
2022/10/15 02:07:53;;;;;;;21.20;14.23;;;;;;;;;;5052282;28;20401;-46
2022/10/15 02:10:27;;;;;;;22.60;16.57;;;;;;;;;;5051799;28;20498;-42
2022/10/15 02:13:11;;;;;;;18.27;14.50;;;;;;;;;;5052593;28;20400;-42
2022/10/15 02:15:46;;;;;;;19.27;13.63;;;;;;;;;;5052334;28;21005;-42
2022/10/15 02:18:18;;;;;;;16.93;13.10;;;;;;;;;;5051393;28;20438;-42
2022/10/15 02:20:53;;;;;;;20.13;12.87;;;;;;;;;;5051985;28;20386;-42
2022/10/15 02:23:27;;;;;;;15.47;12.37;;;;;;;;;;5052165;28;20407;-45
2022/10/15 02:25:54;;;;;;;17.33;13.03;;;;;;;;;;5052197;28;20416;-42
2022/10/15 02:28:21;;;;;;;15.00;12.27;;;;;;;;;;5051399;28;20452;-42
2022/10/15 02:30:49;;;;;;;19.67;13.83;;;;;;;;;;5051884;28;20411;-42
2022/10/15 02:33:16;;;;;;;16.87;12.83;;;;;;;;;;5051989;28;20412;-42
2022/10/15 02:35:43;;;;;;;18.07;12.77;;;;;;;;;;5051920;28;20390;-45
2022/10/15 02:38:10;;;;;;;15.83;12.77;;;;;;;;;;5051166;28;20461;-42
2022/10/15 02:40:37;;;;;;;14.93;11.77;;;;;;;;;;5051767;28;20413;-42
2022/10/15 02:43:05;;;;;;;19.00;13.43;;;;;;;;;;5051933;28;20377;-45
2022/10/15 02:45:31;;;;;;;15.27;12.30;;;;;;;;;;5051704;28;20489;-42
2022/10/15 02:47:57;;;;;;;19.20;12.80;;;;;;;;;;5051551;28;20411;-43
2022/10/15 02:50:23;;;;;;;19.00;12.50;;;;;;;;;;5051572;28;20412;-44
2022/10/15 02:52:49;;;;;;;17.47;11.97;;;;;;;;;;5051786;28;20468;-45
2022/10/15 02:55:15;;;;;;;15.63;11.40;;;;;;;;;;5050819;28;20410;-46
2022/10/15 02:57:41;;;;;;;15.27;11.97;;;;;;;;;;5051221;28;20409;-45
2022/10/15 03:00:07;;;;;;;16.47;12.53;;;;;;;;;;5051313;28;20519;-42
2022/10/15 03:02:33;;;;;;;17.23;12.30;;;;;;;;;;5051552;28;20422;-42
2022/10/15 03:04:59;;;;;;;19.10;12.17;;;;;;;;;;5051689;28;20884;-41
2022/10/15 03:07:25;;;;;;;15.30;12.03;;;;;;;;;;5051485;28;20438;-42
2022/10/15 03:09:51;;;;;;;16.93;12.77;;;;;;;;;;5050971;28;20423;-43
2022/10/15 03:12:19;;;;;;;16.30;13.00;;;;;;;;;;5051568;28;20896;-42
2022/10/15 03:14:45;;;;;;;18.03;13.50;;;;;;;;;;5051587;28;20826;-42
2022/10/15 03:17:11;;;;;;;17.87;13.53;;;;;;;;;;5055089;28;20406;-43
2022/10/15 03:19:37;;;;;;;22.27;12.93;;;;;;;;;;5054945;28;21007;-45
2022/10/15 03:22:03;;;;;;;17.90;12.60;;;;;;;;;;5056174;28;20371;-46
2022/10/15 03:24:29;;;;;;;16.77;14.47;;;;;;;;;;5055431;28;20447;-47
2022/10/15 03:26:55;;;;;;;21.70;13.60;;;;;;;;;;5055583;28;20498;-48
2022/10/15 03:29:21;;;;;;;18.93;13.50;;;;;;;;;;5054778;28;20418;-48
2022/10/15 03:31:47;;;;;;;22.63;14.67;;;;;;;;;;5055562;28;20408;-47
2022/10/15 03:34:13;;;;;;;21.90;13.13;;;;;;;;;;5055422;28;20548;-47
2022/10/15 03:36:39;;;;;;;19.90;14.60;;;;;;;;;;5055390;28;20442;-47
2022/10/15 03:39:05;;;;;;;20.53;15.00;;;;;;;;;;5054362;28;20468;-45
2022/10/15 03:41:31;;;;;;;24.40;15.30;;;;;;;;;;5055252;28;20404;-46
2022/10/15 03:44:00;;;;;;;22.33;16.07;;;;;;;;;;5055327;28;20494;-47
2022/10/15 03:46:26;;;;;;;22.33;17.30;;;;;;;;;;5055155;28;20401;-45
2022/10/15 03:48:52;;;;;;;28.63;18.10;;;;;;;;;;5054848;28;20419;-47
2022/10/15 03:51:18;;;;;;;21.70;16.37;;;;;;;;;;5055137;28;20780;-48
2022/10/15 03:53:44;;;;;;;24.40;16.53;;;;;;;;;;5054988;28;20467;-47
2022/10/15 03:56:10;;;;;;;25.60;18.30;;;;;;;;;;5054156;28;20464;-47
2022/10/15 03:58:36;;;;;;;26.13;17.73;;;;;;;;;;5054214;28;20434;-47
2022/10/15 04:01:07;;;;;;;34.13;18.57;;;;;;;;;;5054799;28;20376;-46
2022/10/15 04:03:33;;;;;;;28.37;18.27;;;;;;;;;;5054703;28;20428;-47
2022/10/15 04:05:59;;;;;;;26.27;18.30;;;;;;;;;;5054760;28;20373;-47
2022/10/15 04:08:25;;;;;;;29.50;18.43;;;;;;;;;;5054145;28;20427;-47
2022/10/15 04:10:51;;;;;;;29.60;20.10;;;;;;;;;;5054720;28;20471;-46
2022/10/15 04:13:17;;;;;;;30.50;20.00;;;;;;;;;;5054672;28;20490;-45
2022/10/15 04:15:43;;;;;;;33.17;19.43;;;;;;;;;;5054583;28;20901;-48
2022/10/15 04:18:09;;;;;;;39.10;21.60;;;;;;;;;;5054185;28;20484;-47
2022/10/15 04:20:35;;;;;;;36.10;22.10;;;;;;;;;;5054566;28;20520;-48
2022/10/15 04:23:01;;;;;;;38.63;22.80;;;;;;;;;;5054736;28;20404;-47
2022/10/15 04:25:27;;;;;;;40.30;21.13;;;;;;;;;;5054490;28;20894;-49
2022/10/15 04:27:53;;;;;;;39.27;23.77;;;;;;;;;;5053489;28;20507;-49
2022/10/15 04:30:19;;;;;;;42.67;23.47;;;;;;;;;;5053906;28;20626;-47
2022/10/15 04:32:45;;;;;;;39.03;24.70;;;;;;;;;;5054278;28;20402;-46
2022/10/15 04:35:11;;;;;;;39.63;24.43;;;;;;;;;;5054229;28;20405;-46
2022/10/15 04:37:37;;;;;;;41.10;24.27;;;;;;;;;;5053998;28;20405;-46
2022/10/15 04:40:03;;;;;;;41.40;24.40;;;;;;;;;;5053618;28;20523;-47
2022/10/15 04:42:30;;;;;;;42.37;25.83;;;;;;;;;;5054117;28;20495;-46
2022/10/15 04:44:56;;;;;;;46.97;28.20;;;;;;;;;;5054118;28;20412;-47
2022/10/15 04:47:22;;;;;;;45.63;25.43;;;;;;;;;;5054494;28;20493;-47
2022/10/15 04:49:48;;;;;;;42.90;24.67;;;;;;;;;;5053228;28;20410;-47
2022/10/15 04:52:14;;;;;;;43.40;25.83;;;;;;;;;;5053943;28;20966;-47
2022/10/15 04:54:40;;;;;;;43.47;24.17;;;;;;;;;;5053869;28;20387;-48
2022/10/15 04:57:06;;;;;;;38.37;24.87;;;;;;;;;;5052886;28;20410;-48
2022/10/15 04:59:32;;;;;;;44.50;25.20;;;;;;;;;;5052888;28;20460;-47
2022/10/15 05:01:58;;;;;;;37.37;23.57;;;;;;;;;;5053996;28;20404;-48
2022/10/15 05:04:24;;;;;;;41.93;24.80;;;;;;;;;;5053648;28;20787;-47
2022/10/15 05:06:50;;;;;;;47.13;25.63;;;;;;;;;;5054003;28;20401;-48
2022/10/15 05:09:16;;;;;;;47.10;27.00;;;;;;;;;;5052932;28;20411;-47
2022/10/15 05:11:42;;;;;;;46.83;25.87;;;;;;;;;;5053613;28;20390;-48
2022/10/15 05:14:08;;;;;;;38.83;24.90;;;;;;;;;;5053466;28;20415;-47
2022/10/15 05:16:34;;;;;;;46.23;25.07;;;;;;;;;;5053512;28;20432;-47
2022/10/15 05:19:01;;;;;;;41.60;24.23;;;;;;;;;;5052652;28;20900;-46
2022/10/15 05:21:27;;;;;;;45.87;26.63;;;;;;;;;;5053438;28;20892;-48
2022/10/15 05:23:53;;;;;;;45.90;26.77;;;;;;;;;;5053451;28;20884;-47
2022/10/15 05:26:21;;;;;;;39.77;24.87;;;;;;;;;;5053271;28;20409;-47
2022/10/15 05:28:47;;;;;;;47.20;26.43;;;;;;;;;;5052357;28;20843;-46
2022/10/15 05:31:14;;;;;;;45.83;25.40;;;;;;;;;;5053184;28;20409;-46
2022/10/15 05:33:40;;;;;;;49.53;26.20;;;;;;;;;;5053174;28;20405;-48
2022/10/15 05:36:13;;;;;;;42.80;26.40;;;;;;;;;;5053077;28;20798;-47
2022/10/15 05:38:40;;;;;;;42.90;25.30;;;;;;;;;;5051387;28;20423;-45
2022/10/15 05:41:06;;;;;;;49.50;27.40;;;;;;;;;;5052965;28;20442;-48
2022/10/15 05:43:32;;;;;;;42.77;25.17;;;;;;;;;;5052974;28;20411;-48
2022/10/15 05:45:58;;;;;;;49.23;25.23;;;;;;;;;;5052930;28;20403;-47
2022/10/15 05:48:24;;;;;;;45.37;23.93;;;;;;;;;;5052108;28;20911;-47
2022/10/15 05:50:50;;;;;;;40.40;24.07;;;;;;;;;;5052846;28;20441;-46
2022/10/15 05:53:16;;;;;;;48.50;27.77;;;;;;;;;;5052716;28;20433;-47
2022/10/15 05:55:42;;;;;;;47.90;26.67;;;;;;;;;;5052621;28;20500;-46
2022/10/15 05:58:08;;;;;;;45.07;25.70;;;;;;;;;;5051653;28;20443;-46
2022/10/15 06:00:35;;;;;;;43.63;25.87;;;;;;;;;;5052775;28;20404;-48
2022/10/15 06:03:01;;;;;;;48.33;25.93;;;;;;;;;;5052595;28;20730;-47
2022/10/15 06:05:27;;;;;;;55.17;24.63;;;;;;;;;;5052599;28;20441;-47
2022/10/15 06:07:53;;;;;;;48.57;27.30;;;;;;;;;;5052200;28;20436;-47
2022/10/15 06:10:19;;;;;;;46.40;25.90;;;;;;;;;;5051960;28;20913;-47
2022/10/15 06:12:49;;;;;;;44.53;24.73;;;;;;;;;;5052444;28;20403;-49
2022/10/15 06:15:15;;;;;;;43.40;24.97;;;;;;;;;;5052393;28;20894;-47
2022/10/15 06:17:41;;;;;;;45.80;24.97;;;;;;;;;;5052004;28;20962;-48
2022/10/15 06:20:07;;;;;;;41.17;25.37;;;;;;;;;;5049913;28;20489;-49
2022/10/15 06:22:33;;;;;;;46.80;26.00;;;;;;;;;;5044254;28;20444;-46
2022/10/15 06:24:59;;;;;;;47.40;25.37;;;;;;;;;;5032180;28;20417;-48
2022/10/15 06:27:25;;;;;;;42.67;24.83;;;;;;;;;;5032240;28;20402;-47
2022/10/15 06:29:51;;;;;;;46.80;25.73;;;;;;;;;;5031514;28;20460;-46
2022/10/15 06:32:17;;;;;;;40.00;24.90;;;;;;;;;;5034308;28;20423;-47
2022/10/15 06:34:43;;;;;;;44.70;24.73;;;;;;;;;;5030643;28;20389;-45
2022/10/15 06:37:10;;;;;;;46.77;26.57;;;;;;;;;;5031370;28;20509;-46
2022/10/15 06:39:36;;;;;;;45.93;25.27;;;;;;;;;;5031218;28;20501;-46
2022/10/15 06:42:02;;;;;;;40.97;25.30;;;;;;;;;;5031629;28;20481;-47
2022/10/15 06:44:28;;;;;;;51.63;25.03;;;;;;;;;;5043240;28;20376;-46
2022/10/15 06:46:57;;;;;;;42.37;24.73;;;;;;;;;;5051513;28;20878;-45
2022/10/15 06:49:23;;;;;;;46.33;25.13;;;;;;;;;;5050768;28;20392;-48
2022/10/15 06:51:49;;;;;;;43.83;23.97;;;;;;;;;;5051599;28;20406;-46
2022/10/15 06:54:15;;;;;;;41.37;24.03;;;;;;;;;;5051926;28;20879;-48
2022/10/15 06:56:41;;;;;;;45.63;26.00;;;;;;;;;;5051602;28;20909;-48
2022/10/15 06:59:07;;;;;;;40.50;26.23;;;;;;;;;;5050818;28;20441;-47
2022/10/15 07:01:33;;;;;;;36.67;24.77;;;;;;;;;;5051692;28;20451;-46
2022/10/15 07:03:59;;;;;;;38.90;23.23;;;;;;;;;;5051366;28;20566;-46
2022/10/15 07:06:25;;;;;;;40.50;24.20;;;;;;;;;;5051192;28;20401;-47
2022/10/15 07:08:51;;;;;;;34.63;21.27;;;;;;;;;;5050796;28;20431;-47
2022/10/15 07:11:17;;;;;;;37.73;22.80;;;;;;;;;;5051592;28;20406;-47
2022/10/15 07:13:43;;;;;;;34.87;21.03;;;;;;;;;;5051534;28;20844;-47
2022/10/15 07:16:10;;;;;;;38.23;24.53;;;;;;;;;;5051288;28;20436;-47
2022/10/15 07:18:36;;;;;;;35.27;23.17;;;;;;;;;;5051014;28;20966;-45
2022/10/15 07:21:03;;;;;;;32.13;21.40;;;;;;;;;;5051292;28;20954;-47
2022/10/15 07:23:29;;;;;;;36.00;20.90;;;;;;;;;;5051672;28;20756;-46
2022/10/15 07:25:58;;;;;;;39.53;22.13;;;;;;;;;;5051331;28;20878;-45
2022/10/15 07:28:24;;;;;;;31.30;20.03;;;;;;;;;;5050741;28;20781;-47
2022/10/15 07:30:50;;;;;;;33.30;20.30;;;;;;;;;;5051322;28;20458;-47
2022/10/15 07:33:16;;;;;;;38.37;21.10;;;;;;;;;;5051423;28;20878;-49
2022/10/15 07:35:42;;;;;;;31.50;20.03;;;;;;;;;;5051127;28;20440;-46
2022/10/15 07:38:08;;;;;;;32.20;19.80;;;;;;;;;;5050927;28;20782;-46
2022/10/15 07:40:34;;;;;;;30.17;20.50;;;;;;;;;;5050931;28;20732;-46
2022/10/15 07:43:00;;;;;;;27.70;19.50;;;;;;;;;;5051327;28;20447;-48
2022/10/15 07:45:27;;;;;;;29.40;18.97;;;;;;;;;;5051232;28;20951;-46
2022/10/15 07:47:53;;;;;;;28.83;18.40;;;;;;;;;;5050743;28;20787;-45
2022/10/15 07:50:19;;;;;;;29.90;21.37;;;;;;;;;;5050686;28;20368;-46
2022/10/15 07:52:46;;;;;;;29.50;19.70;;;;;;;;;;5051254;28;20388;-47
2022/10/15 07:55:12;;;;;;;29.97;19.17;;;;;;;;;;5051191;28;20379;-47
2022/10/15 07:57:38;;;;;;;31.63;20.87;;;;;;;;;;5050745;28;20747;-46
2022/10/15 08:00:05;;;;;;;30.63;19.57;;;;;;;;;;5050571;28;20933;-47
2022/10/15 08:02:31;;;;;;;29.93;20.10;;;;;;;;;;5053199;28;20393;-49
2022/10/15 08:04:57;;;;;;;34.00;20.50;;;;;;;;;;5054763;28;20380;-47
2022/10/15 08:07:23;;;;;;;31.70;20.23;;;;;;;;;;5054494;28;20405;-47
2022/10/15 08:09:49;;;;;;;32.93;20.57;;;;;;;;;;5054018;28;20486;-46
2022/10/15 08:12:15;;;;;;;27.37;19.20;;;;;;;;;;5054789;28;20392;-47
2022/10/15 08:14:41;;;;;;;27.03;17.80;;;;;;;;;;5054709;28;20407;-46
2022/10/15 08:17:07;;;;;;;26.90;18.70;;;;;;;;;;5054387;28;20388;-48
2022/10/15 08:19:33;;;;;;;22.23;16.33;;;;;;;;;;5053233;28;20527;-47
2022/10/15 08:22:00;;;;;;;23.50;16.33;;;;;;;;;;5053176;28;20383;-45
2022/10/15 08:24:29;;;;;;;24.23;17.73;;;;;;;;;;5054387;28;20460;-47
2022/10/15 08:26:56;;;;;;;21.00;15.73;;;;;;;;;;5054412;28;20382;-47
2022/10/15 08:29:22;;;;;;;21.37;16.63;;;;;;;;;;5053390;28;20907;-46
2022/10/15 08:31:48;;;;;;;23.57;16.73;;;;;;;;;;5054058;28;20698;-47
2022/10/15 08:34:14;;;;;;;17.03;13.20;;;;;;;;;;5054249;28;20377;-45
2022/10/15 08:36:40;;;;;;;18.17;13.13;;;;;;;;;;5054195;28;20415;-45
2022/10/15 08:39:08;;;;;;;14.33;11.90;;;;;;;;;;5053232;28;20492;-47
2022/10/15 08:41:42;;;;;;;15.93;12.50;;;;;;;;;;5054053;28;20463;-48
2022/10/15 08:44:23;;;;;;;17.67;11.43;;;;;;;;;;5054201;28;20404;-47
2022/10/15 08:46:50;;;;;;;13.07;10.83;;;;;;;;;;5054090;28;20457;-47
2022/10/15 08:49:39;;;;;;;12.63;11.10;;;;;;;;;;5053097;28;20410;-48
2022/10/15 08:52:24;;;;;;;15.63;11.13;;;;;;;;;;5053785;28;20823;-45
2022/10/15 08:54:50;;;;;;;13.77;10.37;;;;;;;;;;5053700;28;20482;-45
2022/10/15 08:57:35;;;;;;;12.90;11.10;;;;;;;;;;5054059;28;20387;-49
2022/10/15 09:00:20;;;;;;;9.13;8.23;;;;;;;;;;5052919;28;20542;-47
2022/10/15 09:02:46;;;;;;;9.20;8.17;;;;;;;;;;5053654;28;20432;-45
2022/10/15 09:05:25;;;;;;;10.03;6.83;;;;;;;;;;5053388;28;20406;-48
2022/10/15 09:08:03;;;;;;;7.27;6.57;;;;;;;;;;5053545;28;20398;-47
2022/10/15 09:10:39;;;;;;;9.50;5.70;;;;;;;;;;5053346;28;20411;-47
2022/10/15 09:13:09;;;;;;;6.23;5.50;;;;;;;;;;5053375;28;20395;-47
2022/10/15 09:15:57;;;;;;;5.57;5.07;;;;;;;;;;5053790;28;20397;-45
2022/10/15 09:18:26;;;;;;;5.43;4.90;;;;;;;;;;5052528;28;20547;-47
2022/10/15 09:20:53;;;;;;;3.93;3.60;;;;;;;;;;5053997;28;20575;-42
2022/10/15 09:23:21;;;;;;;6.03;4.60;;;;;;;;;;5053366;28;20864;-42
2022/10/15 09:26:02;;;;;;;7.57;3.70;;;;;;;;;;5053788;28;20401;-43
2022/10/15 09:28:31;;;;;;;2.60;2.40;;;;;;;;;;5052128;28;20445;-42
2022/10/15 09:30:58;;;;;;;2.87;2.70;;;;;;;;;;5053019;28;20951;-43
2022/10/15 09:33:33;;;;;;;2.80;2.60;;;;;;;;;;5051071;28;20405;-43
2022/10/15 09:36:15;;;;;;;2.20;2.10;;;;;;;;;;5052704;28;20401;-43
2022/10/15 09:38:56;;;;;;;2.47;2.27;;;;;;;;;;5051658;28;20456;-45
2022/10/15 09:41:40;;;;;;;2.00;1.70;;;;;;;;;;5052717;28;20486;-42
2022/10/15 09:44:12;;;;;;;1.90;1.80;;;;;;;;;;5052705;28;20960;-42
2022/10/15 09:46:45;;;;;;;5.07;2.60;;;;;;;;;;5052463;28;20439;-42
2022/10/15 09:49:21;;;;;;;3.47;1.73;;;;;;;;;;5051549;28;20418;-42
2022/10/15 09:51:47;;;;;;;7.53;1.73;;;;;;;;;;5052506;28;20397;-42
2022/10/15 09:54:12;;;;;;;1.20;1.10;;;;;;;;;;5052687;28;20421;-42
2022/10/15 09:56:46;;;;;;;1.27;1.17;;;;;;;;;;5052309;28;20406;-43
2022/10/15 09:59:18;;;;;;;1.23;1.13;;;;;;;;;;5051231;28;20825;-42
2022/10/15 10:01:58;;;;;;;1.37;1.27;;;;;;;;;;5052403;28;20419;-42
2022/10/15 10:04:29;;;;;;;2.43;1.40;;;;;;;;;;5046710;28;20794;-42
2022/10/15 10:06:59;;;;;;;1.20;1.10;;;;;;;;;;5032324;28;20465;-42
2022/10/15 10:09:38;;;;;;;1.50;1.40;;;;;;;;;;5031360;28;20423;-44
2022/10/15 10:12:06;;;;;;;2.63;1.27;;;;;;;;;;5031244;28;20457;-42
2022/10/15 10:14:36;;;;;;;1.53;1.43;;;;;;;;;;5033080;28;20409;-42
2022/10/15 10:17:15;;;;;;;1.37;1.27;;;;;;;;;;5032344;28;20417;-45
2022/10/15 10:19:41;;;;;;;1.33;1.00;;;;;;;;;;5031015;28;20455;-42
2022/10/15 10:22:14;;;;;;;1.30;1.03;;;;;;;;;;5034764;28;20502;-42
2022/10/15 10:24:40;;;;;;;1.20;1.10;;;;;;;;;;5051392;28;20699;-42
2022/10/15 10:27:27;;;;;;;1.20;1.00;;;;;;;;;;5051301;28;20412;-42
2022/10/15 10:30:01;;;;;;;1.80;1.10;;;;;;;;;;5049069;28;20433;-42
2022/10/15 10:32:29;;;;;;;1.10;1.00;;;;;;;;;;5052106;28;20777;-42
2022/10/15 10:34:55;;;;;;;1.40;1.10;;;;;;;;;;5049075;28;20900;-45
2022/10/15 10:37:22;;;;;;;1.40;1.30;;;;;;;;;;5050649;28;20416;-42
2022/10/15 10:39:58;;;;;;;0.80;0.80;;;;;;;;;;5049468;28;20460;-42
2022/10/15 10:42:26;;;;;;;1.03;0.93;;;;;;;;;;5050741;28;20892;-43
2022/10/15 10:44:53;;;;;;;2.67;0.93;;;;;;;;;;5048903;28;20429;-45
2022/10/15 10:47:25;;;;;;;1.00;0.90;;;;;;;;;;5051076;28;20409;-42
2022/10/15 10:49:53;;;;;;;1.10;1.00;;;;;;;;;;5050715;28;20576;-42
2022/10/15 10:52:21;;;;;;;0.80;0.80;;;;;;;;;;5051222;28;20424;-45
2022/10/15 10:54:48;;;;;;;1.90;1.10;;;;;;;;;;5050748;28;20887;-43
2022/10/15 10:57:16;;;;;;;1.30;1.20;;;;;;;;;;5050329;28;20415;-42
2022/10/15 10:59:53;;;;;;;0.90;0.80;;;;;;;;;;5048954;28;20454;-42
2022/10/15 11:02:19;;;;;;;1.17;1.07;;;;;;;;;;5051083;28;20624;-42
2022/10/15 11:04:46;;;;;;;1.00;0.80;;;;;;;;;;5051590;28;20865;-42
2022/10/15 11:07:21;;;;;;;1.10;1.00;;;;;;;;;;5050810;28;20379;-43
2022/10/15 11:09:57;;;;;;;1.10;0.90;;;;;;;;;;5050446;28;20811;-42
2022/10/15 11:12:39;;;;;;;1.20;1.10;;;;;;;;;;5051412;28;20393;-45
2022/10/15 11:15:24;;;;;;;2.30;1.10;;;;;;;;;;5051686;28;20393;-42
2022/10/15 11:17:53;;;;;;;4.07;1.10;;;;;;;;;;5051271;28;20547;-41
2022/10/15 11:20:30;;;;;;;1.23;1.07;;;;;;;;;;5050942;28;20466;-41
2022/10/15 11:23:15;;;;;;;4.20;1.00;;;;;;;;;;5051510;28;20407;-42
2022/10/15 11:25:41;;;;;;;1.20;1.10;;;;;;;;;;5051416;28;20804;-41
2022/10/15 11:28:10;;;;;;;1.10;1.00;;;;;;;;;;5051033;28;20397;-42
2022/10/15 11:30:42;;;;;;;1.00;0.90;;;;;;;;;;5050825;28;20818;-44
2022/10/15 11:33:34;;;;;;;1.93;0.97;;;;;;;;;;5067252;28;20402;-45
2022/10/15 11:36:10;;;;;;;1.00;0.90;;;;;;;;;;5070174;28;20399;-45
2022/10/15 11:38:41;;;;;;;1.17;1.03;;;;;;;;;;5074723;28;20514;-42
2022/10/15 11:41:19;;;;;;;1.10;1.00;;;;;;;;;;5075272;28;20401;-42
2022/10/15 11:43:51;;;;;;;1.30;1.10;;;;;;;;;;5075168;28;20449;-43
2022/10/15 11:46:23;;;;;;;1.10;1.00;;;;;;;;;;5075066;28;20411;-45
2022/10/15 11:49:02;;;;;;;5.37;1.07;;;;;;;;;;5039667;28;20440;-44
2022/10/15 11:51:41;;;;;;;2.90;1.30;;;;;;;;;;5054816;28;20405;-42
2022/10/15 11:54:22;;;;;;;1.40;1.10;;;;;;;;;;5054859;28;20398;-42
2022/10/15 11:56:50;;;;;;;1.30;1.20;;;;;;;;;;5053329;28;20424;-43
2022/10/15 11:59:16;;;;;;;1.10;1.00;;;;;;;;;;5044791;28;20484;-42
2022/10/15 12:01:52;;;;;;;1.10;1.00;;;;;;;;;;5039565;28;20407;-42
2022/10/15 12:04:24;;;;;;;1.40;0.93;;;;;;;;;;5057291;28;20936;-41
2022/10/15 12:06:52;;;;;;;1.87;1.03;;;;;;;;;;5055591;28;20935;-44
2022/10/15 12:09:26;;;;;;;1.97;1.87;;;;;;;;;;5053883;28;20832;-43
2022/10/15 12:12:00;;;;;;;1.67;1.20;;;;;;;;;;5054737;28;20415;-43
2022/10/15 12:14:38;;;;;;;1.20;1.10;;;;;;;;;;5054785;28;20428;-43
2022/10/15 12:17:11;;;;;;;1.20;1.10;;;;;;;;;;5053337;28;20413;-43
2022/10/15 12:19:41;;;;;;;1.53;1.43;;;;;;;;;;5053155;28;20456;-43
2022/10/15 12:22:10;;;;;;;1.73;1.20;;;;;;;;;;5054387;28;20405;-43
2022/10/15 12:24:39;;;;;;;1.53;1.10;;;;;;;;;;5054389;28;20945;-43
2022/10/15 12:27:34;;;;;;;1.30;1.20;;;;;;;;;;5054326;28;20981;-43
2022/10/15 12:30:06;;;;;;;2.07;0.90;;;;;;;;;;5048762;28;21016;-43
2022/10/15 12:32:44;;;;;;;2.50;1.30;;;;;;;;;;5054136;28;20405;-43
2022/10/15 12:35:13;;;;;;;2.50;1.30;;;;;;;;;;5054574;28;20460;-43
2022/10/15 12:37:40;;;;;;;2.20;1.30;;;;;;;;;;5054193;28;20411;-43
2022/10/15 12:40:23;;;;;;;1.40;1.30;;;;;;;;;;5053437;28;20451;-43
2022/10/15 12:42:53;;;;;;;5.53;1.77;;;;;;;;;;5054103;28;20386;-43
2022/10/15 12:45:21;;;;;;;1.43;1.33;;;;;;;;;;5054060;28;20404;-43
2022/10/15 12:47:53;;;;;;;3.93;1.20;;;;;;;;;;5052377;28;20419;-43
2022/10/15 12:50:20;;;;;;;3.33;1.50;;;;;;;;;;5053421;28;20407;-44
2022/10/15 12:52:50;;;;;;;1.47;1.37;;;;;;;;;;5056607;28;20386;-43
2022/10/15 12:55:22;;;;;;;1.10;1.00;;;;;;;;;;5053268;28;20410;-43
2022/10/15 12:57:48;;;;;;;2.07;1.30;;;;;;;;;;5052672;28;20812;-44
2022/10/15 13:00:28;;;;;;;2.30;1.30;;;;;;;;;;5053606;28;20485;-42
2022/10/15 13:02:59;;;;;;;3.33;1.50;;;;;;;;;;5053631;28;20420;-43
2022/10/15 13:05:27;;;;;;;1.23;1.13;;;;;;;;;;5051464;28;20459;-43
2022/10/15 13:07:54;;;;;;;1.10;1.00;;;;;;;;;;5053286;28;20443;-43
2022/10/15 13:10:29;;;;;;;2.83;1.00;;;;;;;;;;5049608;28;21106;-44
2022/10/15 13:12:57;;;;;;;2.27;1.30;;;;;;;;;;5046404;28;20394;-43
2022/10/15 13:15:24;;;;;;;1.17;1.07;;;;;;;;;;5053212;28;20409;-41
2022/10/15 13:17:50;;;;;;;1.40;1.30;;;;;;;;;;5051900;28;20857;-45
2022/10/15 13:20:54;;;;;;;1.30;1.20;;;;;;;;;;5053140;28;20525;-43
2022/10/15 13:23:27;;;;;;;2.70;1.30;;;;;;;;;;5030145;28;20483;-43
2022/10/15 13:26:10;;;;;;;1.10;1.00;;;;;;;;;;5046522;28;20424;-43
2022/10/15 13:28:38;;;;;;;1.27;1.17;;;;;;;;;;5047328;28;20434;-42
2022/10/15 13:31:06;;;;;;;1.90;1.27;;;;;;;;;;5046905;28;20915;-45
2022/10/15 13:33:38;;;;;;;1.90;1.20;;;;;;;;;;5050396;28;20414;-42
2022/10/15 13:36:06;;;;;;;3.93;1.10;;;;;;;;;;5051882;28;20413;-44
2022/10/15 13:38:38;;;;;;;1.20;1.10;;;;;;;;;;5034882;28;20559;-46
2022/10/15 13:41:05;;;;;;;3.57;1.10;;;;;;;;;;5053428;28;20407;-45
2022/10/15 13:43:31;;;;;;;3.10;1.40;;;;;;;;;;5053314;28;20952;-44
2022/10/15 13:45:58;;;;;;;1.70;1.23;;;;;;;;;;5051975;28;20403;-44
2022/10/15 13:48:25;;;;;;;1.37;1.27;;;;;;;;;;5052946;28;20432;-43
2022/10/15 13:50:52;;;;;;;1.47;1.10;;;;;;;;;;5052829;28;20749;-43
2022/10/15 13:53:27;;;;;;;1.23;1.13;;;;;;;;;;5053018;28;20413;-43
2022/10/15 13:55:57;;;;;;;2.17;1.13;;;;;;;;;;5053542;28;20776;-43
2022/10/15 13:58:23;;;;;;;1.20;1.10;;;;;;;;;;5053115;28;20460;-43
2022/10/15 14:01:00;;;;;;;1.30;1.20;;;;;;;;;;5050783;28;20761;-43
2022/10/15 14:03:31;;;;;;;1.23;1.13;;;;;;;;;;5051179;28;20854;-43
2022/10/15 14:05:57;;;;;;;3.37;1.13;;;;;;;;;;5052272;28;20409;-43
2022/10/15 14:08:28;;;;;;;1.27;1.17;;;;;;;;;;5052226;28;20429;-43
2022/10/15 14:10:56;;;;;;;1.63;1.53;;;;;;;;;;5052035;28;20406;-43
2022/10/15 14:13:22;;;;;;;1.30;0.97;;;;;;;;;;5052267;28;20401;-43
2022/10/15 14:15:48;;;;;;;4.77;1.40;;;;;;;;;;5052245;28;21230;-43
2022/10/15 14:18:16;;;;;;;2.20;1.10;;;;;;;;;;5051736;28;20433;-43
2022/10/15 14:20:43;;;;;;;1.30;1.20;;;;;;;;;;5051954;28;20396;-43
2022/10/15 14:23:16;;;;;;;1.97;1.40;;;;;;;;;;5052090;28;20885;-43
2022/10/15 14:25:42;;;;;;;1.20;1.10;;;;;;;;;;5051959;28;20423;-43
2022/10/15 14:28:19;;;;;;;1.30;1.20;;;;;;;;;;5051809;28;20449;-43
2022/10/15 14:30:46;;;;;;;1.10;1.00;;;;;;;;;;5051832;28;20455;-43
2022/10/15 14:33:39;;;;;;;1.10;1.00;;;;;;;;;;5052170;28;20415;-43
2022/10/15 14:36:05;;;;;;;1.23;1.10;;;;;;;;;;5052204;28;20404;-44
2022/10/15 14:38:31;;;;;;;1.20;1.10;;;;;;;;;;5051247;28;20464;-43